Nakhchivan — 9HHK8 — position and weather

sailwx.info

Track history (hours):
 
Tides and Currents Weather Stations Pressure Air Temp Water Temp Dewpoint Dewpoint Depression Visibility Wind Speed Wind Dir Waves Ship Positions

Nakhchivan

Last reported at 2016-Feb-12 19:32 UTC. Time now 2016-Feb-13 00:26 UTC.
Position N 36°18' W 008°03'.

Length 139 m; draft 4.6 m.

Type: Cargo ship. MMSI: 215983000.

Date/timePositionNaut miles runAvg speedWind from/ knotsBaromVisibWave heightAir tempDewpointWater temp
2016-Feb-12 19:32N 36°18' W 008°03'9 9.5
2016-Feb-12 18:32N 36°21' W 008°15'10 9.6
2016-Feb-12 17:32N 36°23' W 008°26'1010.0
2016-Feb-12 16:32N 36°26' W 008°38'9 9.3
2016-Feb-12 15:32N 36°29' W 008°49'9 8.7
2016-Feb-12 14:32N 36°31' W 008°60'10 9.8
2016-Feb-12 13:32N 36°33' W 009°11'10 9.9
2016-Feb-12 12:32N 36°39' W 009°22'9 8.7
2016-Feb-12 11:32N 36°45' W 009°29'9 8.8
2016-Feb-12 10:32N 36°53' W 009°33'9 8.8
2016-Feb-12 09:29N 37°02' W 009°36'8 8.1
2016-Feb-12 08:32N 37°10' W 009°38'9 8.6
2016-Feb-12 07:32N 37°18' W 009°41'8 8.5
2016-Feb-12 06:32N 37°26' W 009°43'9 7.9
2016-Feb-12 05:26N 37°35' W 009°46'8 8.5
2016-Feb-12 04:32N 37°42' W 009°48'9 9.1
2016-Feb-12 03:32N 37°51' W 009°50'8 8.1
2016-Feb-12 02:32N 37°59' W 009°53'9 9.3
2016-Feb-12 01:32N 38°08' W 009°56'9 9.3
2016-Feb-12 00:32N 38°17' W 009°59'10 8.3
2016-Feb-11 23:20N 38°27' W 010°01'7 9.1
2016-Feb-11 22:32N 38°34' W 010°03'8 8.4
2016-Feb-11 21:33N 38°42' W 010°05'9 8.5
2016-Feb-11 20:33N 38°50' W 010°05'9 9.0
2016-Feb-11 19:33N 38°59' W 010°03'8 8.3
2016-Feb-11 18:33N 39°07' W 010°01'8 8.0
2016-Feb-11 17:33N 39°15' W 009°58'9 8.8
2016-Feb-11 16:32N 39°24' W 009°55'9 8.4
2016-Feb-11 15:29N 39°32' W 009°52'8 8.2
2016-Feb-11 14:32N 39°40' W 009°49'9 8.5
2016-Feb-11 13:32N 39°48' W 009°46'8 8.3
2016-Feb-11 12:32N 39°56' W 009°43'11 7.9
2016-Feb-11 11:05N 40°07' W 009°39'4 7.5
2016-Feb-11 10:32N 40°11' W 009°37'8 8.2
2016-Feb-11 09:32N 40°19' W 009°34'8 8.1
2016-Feb-11 08:32N 40°26' W 009°31'8 7.5
2016-Feb-11 07:29N 40°34' W 009°28'7 7.5
2016-Feb-11 06:32N 40°41' W 009°25'8 8.0
2016-Feb-11 05:32N 40°49' W 009°23'8 8.0
2016-Feb-11 04:32N 40°56' W 009°20'8 7.6
2016-Feb-11 03:32N 41°04' W 009°18'7 7.0
2016-Feb-11 02:33N 41°10' W 009°16'7 7.1
2016-Feb-11 01:33N 41°17' W 009°14'7 7.4
2016-Feb-11 00:33N 41°25' W 009°12'8 7.4
2016-Feb-10 23:32N 41°32' W 009°10'8 7.7
2016-Feb-10 22:32N 41°39' W 009°08'8 7.7
2016-Feb-10 21:32N 41°47' W 009°05'8 7.9
2016-Feb-10 20:32N 41°55' W 009°03'  
Track history (hours):
 
Tides and Currents Weather Stations Pressure Air Temp Water Temp Dewpoint Dewpoint Depression Visibility Wind Speed Wind Dir Waves Ship Positions

Nakhchivan

Last reported at 2016-Feb-12 19:32 UTC. Time now 2016-Feb-13 00:26 UTC.
Position N 36°18' W 008°03'.

Length 139 m; draft 4.6 m.

Type: Cargo ship. MMSI: 215983000.

Date/timePositionNaut miles runAvg speedWind from/ knotsBaromVisibWave heightAir tempDewpointWater temp
2016-Feb-12 19:32N 36°18' W 008°03'9 9.5
2016-Feb-12 18:32N 36°21' W 008°15'10 9.6
2016-Feb-12 17:32N 36°23' W 008°26'1010.0
2016-Feb-12 16:32N 36°26' W 008°38'9 9.3
2016-Feb-12 15:32N 36°29' W 008°49'9 8.7
2016-Feb-12 14:32N 36°31' W 008°60'10 9.8
2016-Feb-12 13:32N 36°33' W 009°11'10 9.9
2016-Feb-12 12:32N 36°39' W 009°22'9 8.7
2016-Feb-12 11:32N 36°45' W 009°29'9 8.8
2016-Feb-12 10:32N 36°53' W 009°33'9 8.8
2016-Feb-12 09:29N 37°02' W 009°36'8 8.1
2016-Feb-12 08:32N 37°10' W 009°38'9 8.6
2016-Feb-12 07:32N 37°18' W 009°41'8 8.5
2016-Feb-12 06:32N 37°26' W 009°43'9 7.9
2016-Feb-12 05:26N 37°35' W 009°46'8 8.5
2016-Feb-12 04:32N 37°42' W 009°48'9 9.1
2016-Feb-12 03:32N 37°51' W 009°50'8 8.1
2016-Feb-12 02:32N 37°59' W 009°53'9 9.3
2016-Feb-12 01:32N 38°08' W 009°56'9 9.3
2016-Feb-12 00:32N 38°17' W 009°59'10 8.3
2016-Feb-11 23:20N 38°27' W 010°01'7 9.1
2016-Feb-11 22:32N 38°34' W 010°03'8 8.4
2016-Feb-11 21:33N 38°42' W 010°05'9 8.5
2016-Feb-11 20:33N 38°50' W 010°05'9 9.0
2016-Feb-11 19:33N 38°59' W 010°03'8 8.3
2016-Feb-11 18:33N 39°07' W 010°01'8 8.0
2016-Feb-11 17:33N 39°15' W 009°58'9 8.8
2016-Feb-11 16:32N 39°24' W 009°55'9 8.4
2016-Feb-11 15:29N 39°32' W 009°52'8 8.2
2016-Feb-11 14:32N 39°40' W 009°49'9 8.5
2016-Feb-11 13:32N 39°48' W 009°46'8 8.3
2016-Feb-11 12:32N 39°56' W 009°43'11 7.9
2016-Feb-11 11:05N 40°07' W 009°39'4 7.5
2016-Feb-11 10:32N 40°11' W 009°37'8 8.2
2016-Feb-11 09:32N 40°19' W 009°34'8 8.1
2016-Feb-11 08:32N 40°26' W 009°31'8 7.5
2016-Feb-11 07:29N 40°34' W 009°28'7 7.5
2016-Feb-11 06:32N 40°41' W 009°25'8 8.0
2016-Feb-11 05:32N 40°49' W 009°23'8 8.0
2016-Feb-11 04:32N 40°56' W 009°20'8 7.6
2016-Feb-11 03:32N 41°04' W 009°18'7 7.0
2016-Feb-11 02:33N 41°10' W 009°16'7 7.1
2016-Feb-11 01:33N 41°17' W 009°14'7 7.4
2016-Feb-11 00:33N 41°25' W 009°12'8 7.4
2016-Feb-10 23:32N 41°32' W 009°10'8 7.7
2016-Feb-10 22:32N 41°39' W 009°08'8 7.7
2016-Feb-10 21:32N 41°47' W 009°05'8 7.9
2016-Feb-10 20:32N 41°55' W 009°03'  

Dump ship's entire track history